Time;durP1;ratioP1;P1;durP2;ratioP2;P2;SDS_P1;SDS_P2;PMS_P1;PMS_P2;Temp;Humidity;BMP_temperature;BMP_pressure;BME280_temperature;BME280_humidity;BME280_pressure;Samples;Min_cycle;Max_cycle;Signal;HPM_P1;HPM_P2
2021/12/17 00:03:06;;;;;;;68.18;26.23;;;;;;;6.21;100.00;101580.34;4949644;28;20035;-62
2021/12/17 00:04:59;;;;;;;65.78;22.50;;;;;;;6.21;100.00;101580.34;4956660;28;20477;-61
2021/12/17 00:07:26;;;;;;;72.45;25.15;;;;;;;6.24;100.00;101585.38;4944536;28;20577;-63
2021/12/17 00:09:52;;;;;;;78.40;27.17;;;;;;;6.18;100.00;101586.00;4954068;28;20031;-61
2021/12/17 00:12:19;;;;;;;66.47;22.65;;;;;;;6.19;100.00;101582.38;4950916;28;20097;-63
2021/12/17 00:14:47;;;;;;;76.05;26.80;;;;;;;6.18;100.00;101580.66;4949286;28;20030;-61
2021/12/17 00:17:16;;;;;;;74.45;24.73;;;;;;;6.18;100.00;101578.00;4954870;28;20110;-61
2021/12/17 00:49:53;;;;;;;83.97;23.50;;;;;;;6.01;100.00;101568.22;4947438;28;20107;-62
2021/12/17 00:52:19;;;;;;;76.20;21.10;;;;;;;5.99;100.00;101564.88;4952348;28;20043;-62
2021/12/17 00:54:45;;;;;;;79.50;23.00;;;;;;;5.96;100.00;101563.38;4946752;28;20054;-62
2021/12/17 00:57:13;;;;;;;70.22;22.05;;;;;;;5.97;100.00;101561.56;4949757;28;20604;-62
2021/12/17 00:59:40;;;;;;;76.57;23.50;;;;;;;5.94;100.00;101562.72;4945939;28;20075;-62
2021/12/17 01:02:09;;;;;;;70.68;21.00;;;;;;;5.92;100.00;101569.16;4957023;28;20039;-62
2021/12/17 01:04:36;;;;;;;75.05;22.38;;;;;;;5.93;100.00;101568.16;4950790;28;20472;-61
2021/12/17 01:07:01;;;;;;;79.82;24.75;;;;;;;5.89;100.00;101570.31;4949411;28;20057;-61
2021/12/17 01:09:27;;;;;;;75.55;21.83;;;;;;;5.93;100.00;101565.50;4952509;28;20042;-61
2021/12/17 01:11:55;;;;;;;73.95;23.40;;;;;;;5.87;100.00;101558.13;4950374;28;20607;-61
2021/12/17 01:14:21;;;;;;;85.88;23.85;;;;;;;5.83;100.00;101555.75;4949299;28;20453;-61
2021/12/17 01:16:47;;;;;;;86.35;24.13;;;;;;;5.82;100.00;101556.75;4949556;28;20458;-61
2021/12/17 01:22:16;;;;;;;89.78;24.40;;;;;;;5.87;100.00;101552.81;4950302;28;20327;-64
2021/12/17 01:24:53;;;;;;;70.22;21.33;;;;;;;5.85;100.00;101547.63;4946399;28;20062;-61
2021/12/17 01:35:43;;;;;;;77.28;21.92;;;;;;;5.84;100.00;101546.81;4948830;28;20433;-61
2021/12/17 01:43:26;;;;;;;71.55;24.15;;;;;;;5.81;100.00;101555.06;4953384;28;20474;-62
2021/12/17 01:45:52;;;;;;;66.85;22.02;;;;;;;5.81;100.00;101552.41;4951184;28;20533;-62
2021/12/17 01:48:23;;;;;;;65.70;23.85;;;;;;;5.78;100.00;101544.75;4957451;28;20113;-62
2021/12/17 01:56:31;;;;;;;55.38;19.13;;;;;;;5.83;100.00;101565.56;4948369;28;20050;-62
2021/12/17 02:01:41;;;;;;;73.57;20.73;;;;;;;5.77;100.00;101567.03;4950881;28;20212;-63
2021/12/17 02:04:07;;;;;;;72.82;20.23;;;;;;;5.77;100.00;101567.03;4956720;28;20030;-62
2021/12/17 02:06:37;;;;;;;80.65;23.83;;;;;;;5.78;100.00;101568.69;4948219;28;20474;-62
2021/12/17 02:09:19;;;;;;;65.65;19.98;;;;;;;5.74;100.00;101566.50;4948823;28;20027;-62
2021/12/17 02:12:16;;;;;;;65.18;19.98;;;;;;;5.75;100.00;101555.72;4961032;28;20093;-62
2021/12/17 02:28:59;;;;;;;84.13;24.63;;;;;;;5.72;100.00;101553.34;4947613;28;20041;-61
2021/12/17 02:33:51;;;;;;;85.32;22.67;;;;;;;5.70;100.00;101547.34;4955577;28;20030;-62
2021/12/17 02:36:21;;;;;;;89.15;23.13;;;;;;;5.70;100.00;101544.69;4954208;28;20564;-61
2021/12/17 02:38:46;;;;;;;85.95;23.23;;;;;;;5.72;100.00;101547.22;4955765;28;20045;-62
2021/12/17 02:46:40;;;;;;;88.13;25.38;;;;;;;5.85;100.00;101534.31;4950527;28;20456;-61
2021/12/17 02:49:07;;;;;;;78.28;25.73;;;;;;;5.88;100.00;101530.50;4948534;28;20062;-62
2021/12/17 02:51:32;;;;;;;57.67;21.13;;;;;;;5.94;100.00;101530.78;4947173;28;20467;-60
2021/12/17 02:53:57;;;;;;;67.50;23.80;;;;;;;5.91;100.00;101524.88;4949325;28;20035;-61
2021/12/17 02:56:23;;;;;;;63.90;22.15;;;;;;;5.92;100.00;101534.56;4946214;28;20055;-62
2021/12/17 02:58:48;;;;;;;64.07;21.55;;;;;;;5.89;100.00;101533.03;4955725;28;20038;-62
2021/12/17 03:01:14;;;;;;;65.22;22.10;;;;;;;5.98;100.00;101536.59;4951847;28;20492;-62
2021/12/17 03:03:40;;;;;;;59.25;23.58;;;;;;;5.91;100.00;101530.19;4948793;28;20588;-63
2021/12/17 03:06:06;;;;;;;76.63;24.83;;;;;;;5.96;100.00;101528.75;4947878;28;20138;-62
2021/12/17 03:08:31;;;;;;;72.18;23.42;;;;;;;5.96;100.00;101535.91;4945916;28;20308;-63
2021/12/17 03:10:58;;;;;;;73.07;26.30;;;;;;;5.98;100.00;101534.78;4955342;28;20049;-63
2021/12/17 03:13:25;;;;;;;68.45;25.15;;;;;;;5.96;100.00;101541.25;4951912;28;20648;-62
2021/12/17 03:16:21;;;;;;;64.60;23.83;;;;;;;5.96;100.00;101536.75;4944714;28;20045;-62
2021/12/17 03:24:00;;;;;;;62.50;23.30;;;;;;;6.01;100.00;101544.28;4954040;28;20046;-62
2021/12/17 03:26:26;;;;;;;66.43;23.92;;;;;;;5.98;100.00;101536.59;4947048;28;20195;-62
2021/12/17 03:28:53;;;;;;;78.40;23.50;;;;;;;5.95;100.00;101542.25;4947497;28;20600;-62
2021/12/17 03:31:19;;;;;;;68.10;23.42;;;;;;;6.05;100.00;101535.81;4953711;28;20058;-62
2021/12/17 03:33:46;;;;;;;67.30;22.73;;;;;;;5.94;100.00;101538.75;4950961;28;20038;-62
2021/12/17 03:36:14;;;;;;;72.20;24.60;;;;;;;6.00;100.00;101531.97;4949722;28;20059;-62
2021/12/17 03:38:40;;;;;;;71.28;25.23;;;;;;;5.95;100.00;101527.09;4948494;28;20566;-62
2021/12/17 03:41:15;;;;;;;67.88;23.67;;;;;;;5.96;100.00;101534.09;4943234;28;20043;-62
2021/12/17 03:43:40;;;;;;;66.68;25.48;;;;;;;5.97;100.00;101529.63;4950444;28;20042;-62
2021/12/17 03:46:06;;;;;;;71.78;25.52;;;;;;;5.94;100.00;101535.25;4947019;28;20039;-62
2021/12/17 03:48:35;;;;;;;72.15;24.77;;;;;;;6.06;100.00;101534.00;4954662;28;20023;-62
2021/12/17 03:51:00;;;;;;;73.90;25.10;;;;;;;6.03;100.00;101531.66;4948651;28;20047;-62
2021/12/17 03:53:26;;;;;;;67.03;23.95;;;;;;;6.02;100.00;101530.00;4954283;28;20476;-62
2021/12/17 03:55:51;;;;;;;71.28;24.88;;;;;;;6.02;100.00;101535.31;4951769;28;20121;-62
2021/12/17 03:58:17;;;;;;;63.78;24.05;;;;;;;6.04;100.00;101541.28;4950038;28;20047;-62
2021/12/17 04:00:43;;;;;;;74.97;25.73;;;;;;;6.02;100.00;101530.81;4950275;28;20126;-61
2021/12/17 04:03:08;;;;;;;76.43;24.08;;;;;;;6.05;100.00;101532.34;4952907;28;20373;-62
2021/12/17 04:05:34;;;;;;;64.25;24.85;;;;;;;6.07;100.00;101540.19;4952323;28;20047;-62
2021/12/17 04:07:59;;;;;;;59.47;21.73;;;;;;;6.01;100.00;101536.28;4950977;28;20767;-62
2021/12/17 04:10:28;;;;;;;64.95;24.02;;;;;;;5.98;100.00;101525.97;4954828;28;20039;-62
2021/12/17 04:15:19;;;;;;;73.40;24.77;;;;;;;6.01;100.00;101525.63;4947835;28;20019;-62
2021/12/17 04:17:52;;;;;;;70.60;23.80;;;;;;;6.04;100.00;101520.84;4956358;28;20065;-62
2021/12/17 04:20:18;;;;;;;60.08;23.90;;;;;;;6.05;100.00;101519.84;4950052;28;20027;-62
2021/12/17 04:22:43;;;;;;;66.00;24.40;;;;;;;6.05;100.00;101522.50;4953025;28;20113;-62
2021/12/17 04:25:08;;;;;;;66.50;23.67;;;;;;;6.05;100.00;101516.34;4946306;28;20118;-62
2021/12/17 04:27:34;;;;;;;59.08;22.27;;;;;;;6.05;100.00;101517.19;4947221;28;20124;-62
2021/12/17 04:29:59;;;;;;;64.78;23.52;;;;;;;6.08;100.00;101525.84;4953788;28;20027;-62
2021/12/17 04:32:25;;;;;;;57.47;22.50;;;;;;;6.02;100.00;101517.50;4946912;28;20043;-62
2021/12/17 04:34:50;;;;;;;68.35;25.20;;;;;;;5.95;100.00;101511.13;4953557;28;20034;-62
2021/12/17 04:37:16;;;;;;;54.97;23.27;;;;;;;5.96;100.00;101506.63;4949614;28;20417;-62
2021/12/17 04:39:41;;;;;;;63.00;24.13;;;;;;;6.00;100.00;101508.00;4949225;28;20489;-62
2021/12/17 04:45:05;;;;;;;56.55;24.00;;;;;;;5.91;100.00;101503.59;4930963;28;20058;-62
2021/12/17 04:58:27;;;;;;;72.65;24.02;;;;;;;6.01;100.00;101515.00;4945132;28;20049;-62
2021/12/17 05:00:53;;;;;;;58.33;23.60;;;;;;;6.05;100.00;101514.53;4946966;28;20047;-62
2021/12/17 05:03:18;;;;;;;62.38;24.30;;;;;;;6.07;100.00;101511.72;4949947;28;20035;-62
2021/12/17 05:05:43;;;;;;;64.57;25.30;;;;;;;6.02;100.00;101514.84;4957193;28;20473;-62
2021/12/17 05:08:14;;;;;;;69.60;24.67;;;;;;;5.99;100.00;101514.31;4947032;28;20046;-62
2021/12/17 05:18:50;;;;;;;61.45;24.25;;;;;;;5.83;100.00;101529.16;4951899;28;20372;-62
2021/12/17 05:21:16;;;;;;;57.55;23.73;;;;;;;5.83;100.00;101534.47;4953092;28;20031;-62
2021/12/17 05:23:43;;;;;;;64.15;22.85;;;;;;;5.88;100.00;101522.53;4945896;28;20496;-62
2021/12/17 05:26:19;;;;;;;49.92;21.30;;;;;;;5.86;100.00;101524.50;4949802;28;20042;-62
2021/12/17 05:28:44;;;;;;;45.83;21.02;;;;;;;5.84;100.00;101530.84;4955085;28;20034;-62
2021/12/17 05:31:10;;;;;;;49.30;19.73;;;;;;;5.88;100.00;101543.81;4950122;28;20046;-62
2021/12/17 05:33:36;;;;;;;56.75;22.90;;;;;;;5.83;100.00;101534.47;4955993;28;20555;-62
2021/12/17 05:36:01;;;;;;;49.55;20.13;;;;;;;5.81;100.00;101531.13;4950405;28;20082;-62
2021/12/17 05:38:27;;;;;;;51.05;21.45;;;;;;;5.88;100.00;101530.50;4952669;28;20394;-62
2021/12/17 05:40:52;;;;;;;53.30;19.73;;;;;;;5.88;100.00;101528.69;4954704;28;20166;-62
2021/12/17 05:43:18;;;;;;;48.95;20.88;;;;;;;5.86;100.00;101522.69;4949146;28;20149;-62
2021/12/17 05:45:50;;;;;;;53.17;23.15;;;;;;;5.83;100.00;101529.16;4958365;28;20050;-62
2021/12/17 05:48:17;;;;;;;50.38;21.17;;;;;;;5.84;100.00;101525.50;4955340;28;20031;-63
2021/12/17 05:50:44;;;;;;;56.50;21.73;;;;;;;5.81;100.00;101525.81;4949415;28;20473;-61
2021/12/17 05:53:09;;;;;;;51.42;22.45;;;;;;;5.79;100.00;101516.31;4952163;28;20043;-62
2021/12/17 05:55:35;;;;;;;44.90;19.75;;;;;;;5.81;100.00;101512.50;4955265;28;20657;-61
2021/12/17 05:58:02;;;;;;;40.42;19.65;;;;;;;5.78;100.00;101515.47;4951613;28;20039;-61
2021/12/17 06:00:31;;;;;;;37.42;16.98;;;;;;;5.82;100.00;101513.34;4957666;28;20055;-61
2021/12/17 06:02:57;;;;;;;45.88;18.55;;;;;;;5.87;100.00;101512.88;4952774;28;20039;-61
2021/12/17 06:05:22;;;;;;;25.85;10.90;;;;;;;5.75;100.00;101504.31;4952108;28;20051;-61
2021/12/17 06:07:48;;;;;;;30.60;12.32;;;;;;;5.78;100.00;101506.66;4956213;28;20367;-62
2021/12/17 06:10:14;;;;;;;11.20;6.63;;;;;;;5.77;95.06;101507.66;4944350;28;20477;-61
2021/12/17 06:12:39;;;;;;;11.18;6.78;;;;;;;5.86;94.60;101501.38;4953741;28;20030;-62
2021/12/17 06:15:07;;;;;;;16.35;7.68;;;;;;;5.91;96.39;101503.59;4952801;28;20034;-61
2021/12/17 06:17:32;;;;;;;12.60;6.82;;;;;;;5.89;97.57;101506.41;4953182;28;20057;-61
2021/12/17 06:19:58;;;;;;;12.27;6.75;;;;;;;5.90;94.65;101509.91;4953628;28;20035;-61
2021/12/17 06:22:23;;;;;;;11.32;6.70;;;;;;;5.89;92.54;101521.53;4950207;28;20086;-62
2021/12/17 06:24:49;;;;;;;11.15;6.22;;;;;;;5.89;93.38;101513.53;4953348;28;20039;-62
2021/12/17 06:27:15;;;;;;;13.63;7.90;;;;;;;5.87;93.06;101518.22;4947838;28;20343;-62
2021/12/17 06:29:41;;;;;;;18.17;9.82;;;;;;;5.83;94.83;101523.81;4949493;28;20421;-62
2021/12/17 06:32:07;;;;;;;17.48;10.13;;;;;;;5.78;94.73;101528.78;4958104;28;20545;-62
2021/12/17 06:34:36;;;;;;;18.48;10.23;;;;;;;5.76;95.18;101535.25;4953735;28;20104;-63
2021/12/17 06:37:02;;;;;;;9.73;5.80;;;;;;;5.79;91.84;101538.44;4957517;28;20047;-62
2021/12/17 06:39:28;;;;;;;11.73;6.00;;;;;;;5.87;91.97;101529.69;4952138;28;20035;-63
2021/12/17 06:41:53;;;;;;;11.85;5.57;;;;;;;5.84;91.68;101536.16;4960535;28;20046;-62
2021/12/17 06:44:23;;;;;;;11.15;7.22;;;;;;;5.84;92.92;101530.84;4955893;28;20039;-63
2021/12/17 06:55:02;;;;;;;17.63;9.55;;;;;;;5.90;94.32;101549.84;4944744;28;20085;-62
2021/12/17 07:10:55;;;;;;;10.30;5.75;;;;;;;5.67;91.76;101554.81;4948828;28;20105;-61
2021/12/17 07:34:01;;;;;;;14.77;9.88;;;;;;;5.44;94.33;101543.78;4950848;28;20054;-63
2021/12/17 07:36:37;;;;;;;12.02;7.65;;;;;;;5.39;94.52;101542.44;4951007;28;20046;-63
2021/12/17 07:39:02;;;;;;;12.98;8.93;;;;;;;5.40;94.77;101545.94;4929960;28;20541;-62
2021/12/17 07:41:28;;;;;;;13.48;8.93;;;;;;;5.37;94.87;101544.41;4953260;28;20047;-62
2021/12/17 07:43:57;;;;;;;14.07;8.63;;;;;;;5.39;94.92;101546.91;4951660;28;20093;-63
2021/12/17 07:46:22;;;;;;;14.45;8.30;;;;;;;5.35;94.80;101546.38;4946482;28;20039;-62
2021/12/17 07:48:48;;;;;;;13.07;8.40;;;;;;;5.35;95.01;101549.03;4951043;28;20035;-65
2021/12/17 07:51:15;;;;;;;15.05;9.77;;;;;;;5.37;95.27;101549.72;4950717;28;20031;-62
2021/12/17 07:53:40;;;;;;;16.67;10.18;;;;;;;5.39;95.44;101549.56;4955921;28;20041;-64
2021/12/17 07:56:07;;;;;;;17.15;9.60;;;;;;;5.39;94.97;101557.53;4946873;28;20051;-62
2021/12/17 07:58:32;;;;;;;14.98;8.57;;;;;;;5.44;93.87;101555.25;4952889;28;20042;-62
2021/12/17 08:00:58;;;;;;;13.57;8.95;;;;;;;5.41;93.68;101555.56;4951957;28;20399;-63
2021/12/17 08:03:24;;;;;;;11.85;7.82;;;;;;;5.53;93.66;101558.84;4948841;28;20533;-63
2021/12/17 08:05:49;;;;;;;11.85;6.82;;;;;;;5.48;93.37;101553.13;4951379;28;20068;-62
2021/12/17 08:08:15;;;;;;;12.10;8.20;;;;;;;5.41;93.45;101556.38;4949516;28;20035;-63
2021/12/17 08:10:40;;;;;;;10.38;5.43;;;;;;;5.39;91.30;101552.22;4950239;28;20096;-62
2021/12/17 08:13:08;;;;;;;12.02;7.35;;;;;;;5.45;92.37;101564.09;4952891;28;20031;-62
2021/12/17 08:15:42;;;;;;;13.65;8.15;;;;;;;5.47;93.09;101570.94;4946551;28;20107;-62
2021/12/17 08:28:17;;;;;;;10.82;7.00;;;;;;;5.36;92.17;101587.94;4951422;28;20093;-62
2021/12/17 08:30:43;;;;;;;12.00;7.47;;;;;;;5.36;92.24;101590.59;4944986;28;20043;-62
2021/12/17 08:33:08;;;;;;;12.18;7.95;;;;;;;5.39;92.11;101590.31;4944681;28;20026;-62
2021/12/17 08:35:34;;;;;;;11.23;7.18;;;;;;;5.41;91.58;101596.28;4950795;28;20562;-62
2021/12/17 08:38:03;;;;;;;13.60;7.88;;;;;;;5.49;91.77;101590.25;4953806;28;20041;-63
2021/12/17 08:40:30;;;;;;;9.43;6.15;;;;;;;5.56;91.43;101601.09;4955104;28;20138;-62
2021/12/17 08:42:55;;;;;;;9.27;6.13;;;;;;;5.52;92.34;101605.06;4955907;28;20035;-62
2021/12/17 08:45:20;;;;;;;9.95;5.82;;;;;;;5.50;92.08;101607.84;4955047;28;20058;-62
2021/12/17 08:47:47;;;;;;;11.10;6.85;;;;;;;5.50;92.02;101601.72;4956848;28;20046;-63
2021/12/17 08:50:13;;;;;;;7.57;5.25;;;;;;;5.47;91.20;101613.50;4956844;28;20054;-63
2021/12/17 08:52:39;;;;;;;11.32;6.97;;;;;;;5.49;91.57;101622.16;4954946;28;20098;-62
2021/12/17 08:55:05;;;;;;;9.15;6.20;;;;;;;5.55;91.71;101620.72;4956878;28;20104;-62
2021/12/17 08:57:30;;;;;;;10.50;5.93;;;;;;;5.71;90.54;101631.50;4959144;28;20069;-62
2021/12/17 08:59:57;;;;;;;10.00;5.43;;;;;;;5.63;90.59;101623.44;4953200;28;20042;-63
2021/12/17 09:02:24;;;;;;;12.07;4.93;;;;;;;5.59;91.10;101624.72;4947337;28;20047;-62
2021/12/17 09:04:52;;;;;;;13.90;6.80;;;;;;;5.69;91.68;101622.84;4954416;28;20030;-63
2021/12/17 09:07:17;;;;;;;10.85;5.65;;;;;;;5.69;91.56;101628.19;4944689;28;20043;-63
2021/12/17 09:09:45;;;;;;;18.58;6.78;;;;;;;5.92;91.17;101633.03;4956626;28;20039;-63
2021/12/17 09:12:11;;;;;;;34.97;8.57;;;;;;;5.78;92.09;101637.06;4945633;28;20355;-63
2021/12/17 09:14:37;;;;;;;31.90;8.48;;;;;;;5.89;92.16;101628.00;4956377;28;20038;-63
2021/12/17 09:17:03;;;;;;;12.63;7.97;;;;;;;5.89;92.11;101618.22;4946466;28;20085;-62
2021/12/17 09:19:28;;;;;;;16.08;7.80;;;;;;;5.99;91.54;101626.13;4950119;28;20502;-63
2021/12/17 09:21:53;;;;;;;15.15;8.10;;;;;;;6.10;92.70;101625.06;4950255;28;20042;-63
2021/12/17 09:24:19;;;;;;;18.73;9.27;;;;;;;5.93;91.86;101629.38;4954065;28;20058;-62
2021/12/17 09:26:44;;;;;;;11.52;6.97;;;;;;;5.92;92.18;101625.88;4950694;28;20069;-62
2021/12/17 09:29:10;;;;;;;11.98;7.25;;;;;;;5.94;92.34;101625.75;4956659;28;20097;-63
2021/12/17 09:31:36;;;;;;;11.93;7.63;;;;;;;6.11;92.48;101624.88;4955246;28;20042;-63
2021/12/17 09:34:02;;;;;;;9.82;6.95;;;;;;;6.06;91.31;101624.50;4958494;28;20591;-62
2021/12/17 09:36:27;;;;;;;16.02;7.40;;;;;;;6.00;91.67;101631.28;4956164;28;20502;-62
2021/12/17 09:38:53;;;;;;;14.45;7.30;;;;;;;6.10;92.55;101628.56;4956461;28;20286;-62
2021/12/17 09:41:20;;;;;;;17.88;7.55;;;;;;;6.13;91.73;101622.91;4955932;28;20066;-63
2021/12/17 09:43:46;;;;;;;69.07;21.80;;;;;;;6.09;91.27;101624.22;4954975;28;20388;-62
2021/12/17 09:46:11;;;;;;;24.38;11.43;;;;;;;6.00;91.58;101628.63;4954290;28;20488;-63
2021/12/17 09:48:37;;;;;;;14.60;8.93;;;;;;;6.06;92.26;101624.50;4957798;28;20058;-62
2021/12/17 09:51:04;;;;;;;13.68;7.15;;;;;;;6.11;91.72;101627.53;4955054;28;20481;-63
2021/12/17 09:53:31;;;;;;;12.88;8.35;;;;;;;6.23;92.52;101626.31;4954091;28;20065;-64
2021/12/17 09:55:56;;;;;;;13.07;8.55;;;;;;;6.32;91.41;101626.38;4953481;28;20049;-61
2021/12/17 09:58:22;;;;;;;13.43;8.15;;;;;;;6.31;90.88;101628.19;4959649;28;20030;-62
2021/12/17 10:00:47;;;;;;;15.45;9.90;;;;;;;6.43;91.38;101636.78;4947832;28;20043;-63
2021/12/17 10:03:13;;;;;;;13.60;8.90;;;;;;;6.46;91.44;101626.66;4948839;28;20043;-62
2021/12/17 10:05:39;;;;;;;14.95;8.68;;;;;;;6.40;91.88;101631.75;4955671;28;20363;-62
2021/12/17 10:08:09;;;;;;;11.77;7.72;;;;;;;6.40;91.89;101637.09;4951873;28;20050;-62
2021/12/17 10:10:36;;;;;;;;;;;;;;;6.40;91.74;101645.09;4956085;28;20119;-63
2021/12/17 10:13:10;;;;;;;16.77;11.20;;;;;;;6.35;91.78;101644.72;4954173;28;19992;-63
2021/12/17 10:15:36;;;;;;;18.85;10.23;;;;;;;6.23;91.46;101642.28;4957470;28;20046;-62
2021/12/17 10:18:02;;;;;;;27.27;17.13;;;;;;;6.33;91.99;101649.34;4961756;28;20138;-62
2021/12/17 10:20:29;;;;;;;16.75;8.98;;;;;;;6.03;93.07;101646.97;4957331;28;20042;-63
2021/12/17 10:23:04;;;;;;;18.02;10.52;;;;;;;6.09;93.08;101647.31;4962431;28;20061;-63
2021/12/17 10:25:30;;;;;;;16.40;9.45;;;;;;;6.08;93.87;101638.50;4957858;28;20063;-63
2021/12/17 10:27:59;;;;;;;15.93;9.65;;;;;;;6.26;93.12;101634.00;4960882;28;20089;-63
2021/12/17 10:30:24;;;;;;;19.55;10.68;;;;;;;6.05;93.08;101638.81;4958401;28;20433;-63
2021/12/17 10:32:52;;;;;;;25.70;12.45;;;;;;;6.04;94.61;101637.13;4960750;28;20027;-61
2021/12/17 10:35:19;;;;;;;27.88;15.23;;;;;;;6.16;94.93;101627.91;4957966;28;20053;-61
2021/12/17 10:37:56;;;;;;;19.00;11.40;;;;;;;6.21;94.28;101630.94;4959057;28;20125;-61
2021/12/17 10:40:22;;;;;;;69.00;14.75;;;;;;;6.32;95.40;101629.06;4958295;28;21351;-62
2021/12/17 10:42:55;;;;;;;24.42;12.20;;;;;;;6.09;93.40;101618.91;4958688;28;20556;-63
2021/12/17 10:45:29;;;;;;;19.85;10.23;;;;;;;6.23;94.56;101618.31;4959203;28;20193;-63
2021/12/17 10:51:07;;;;;;;17.45;10.50;;;;;;;6.23;94.10;101615.66;4896742;29;20053;-62
2021/12/17 10:53:33;;;;;;;18.58;12.15;;;;;;;6.34;93.56;101619.06;4900729;29;20042;-64
2021/12/17 10:55:59;;;;;;;18.60;9.85;;;;;;;6.39;93.84;101609.63;4925410;28;20046;-62
2021/12/17 10:58:26;;;;;;;18.52;9.82;;;;;;;6.47;95.34;101611.50;4960764;28;20051;-63
2021/12/17 11:01:05;;;;;;;16.45;10.00;;;;;;;6.58;94.57;101613.06;4956064;28;20035;-62
2021/12/17 11:03:41;;;;;;;19.75;10.32;;;;;;;6.68;94.08;101597.78;4957414;28;20038;-62
2021/12/17 11:06:06;;;;;;;15.73;9.57;;;;;;;6.65;93.81;101604.25;4956653;28;20469;-62
2021/12/17 11:08:33;;;;;;;17.38;10.32;;;;;;;6.80;93.62;101601.00;4947469;28;20031;-62
2021/12/17 11:11:08;;;;;;;18.55;9.90;;;;;;;6.63;92.90;101594.75;4953021;28;20066;-63
2021/12/17 11:13:33;;;;;;;19.27;10.57;;;;;;;6.70;94.50;101599.28;4952105;28;20035;-61
2021/12/17 11:15:59;;;;;;;20.88;11.68;;;;;;;6.63;93.91;101590.25;4952364;28;20688;-61
2021/12/17 11:18:25;;;;;;;19.95;12.82;;;;;;;6.61;94.33;101589.56;4945902;28;20039;-61
2021/12/17 11:20:52;;;;;;;16.80;10.05;;;;;;;6.62;93.91;101588.59;4947845;28;20042;-63
2021/12/17 11:23:18;;;;;;;18.75;10.52;;;;;;;6.70;94.01;101585.13;4950117;28;20478;-62
2021/12/17 11:25:46;;;;;;;20.67;10.38;;;;;;;6.74;94.92;101590.97;4955404;28;20106;-63
2021/12/17 11:28:12;;;;;;;17.63;10.32;;;;;;;6.81;94.49;101594.69;4951323;28;20026;-62
2021/12/17 11:30:40;;;;;;;22.02;10.82;;;;;;;6.68;94.03;101598.63;4944935;28;20047;-63
2021/12/17 11:33:06;;;;;;;19.58;11.05;;;;;;;6.62;93.37;101599.25;4948845;28;20030;-63
2021/12/17 11:35:33;;;;;;;21.13;11.80;;;;;;;6.62;93.50;101588.59;4952237;28;20464;-63
2021/12/17 11:38:00;;;;;;;17.42;11.15;;;;;;;6.65;93.27;101588.28;4954861;28;20086;-61
2021/12/17 11:40:31;;;;;;;21.38;11.25;;;;;;;6.66;94.10;101594.44;4965158;28;20042;-62
2021/12/17 11:43:16;;;;;;;20.38;12.07;;;;;;;6.92;93.68;101599.72;4947921;28;20110;-62
2021/12/17 11:45:45;;;;;;;23.15;11.70;;;;;;;6.64;92.35;101593.75;4970251;28;20050;-61
2021/12/17 11:48:22;;;;;;;19.30;11.88;;;;;;;6.24;94.53;101596.03;4952121;28;20049;-63
2021/12/17 11:51:05;;;;;;;21.25;12.38;;;;;;;6.15;95.35;101586.31;4952886;28;20378;-61
2021/12/17 11:53:30;;;;;;;22.67;11.57;;;;;;;6.21;95.59;101596.34;4952739;28;20122;-61
2021/12/17 11:56:04;;;;;;;20.48;12.25;;;;;;;6.34;95.48;101595.09;4949792;28;20047;-62
2021/12/17 11:58:53;;;;;;;17.63;10.43;;;;;;;6.05;96.15;101590.91;4951670;28;20592;-63
2021/12/17 12:01:49;;;;;;;25.48;16.05;;;;;;;6.39;97.00;101583.00;4949594;28;20039;-63
2021/12/17 12:04:35;;;;;;;32.10;18.05;;;;;;;6.62;96.69;101587.78;4946884;28;20043;-64
2021/12/17 12:07:06;;;;;;;28.48;14.55;;;;;;;6.61;95.96;101586.91;4950653;28;20082;-63
2021/12/17 12:09:57;;;;;;;22.08;14.13;;;;;;;6.57;95.87;101582.91;4947805;28;20110;-63
2021/12/17 12:12:35;;;;;;;24.42;12.93;;;;;;;6.61;95.60;101576.25;4954109;28;20054;-61
2021/12/17 12:15:23;;;;;;;25.80;13.05;;;;;;;6.62;97.21;101572.63;4949708;28;20065;-63
2021/12/17 12:17:57;;;;;;;60.58;22.95;;;;;;;6.63;94.77;101578.78;4947314;28;20081;-62
2021/12/17 12:20:44;;;;;;;57.75;22.85;;;;;;;6.54;96.14;101574.38;4946603;28;20053;-61
2021/12/17 12:23:20;;;;;;;38.22;17.92;;;;;;;6.36;95.27;101571.78;4949407;28;20050;-62
2021/12/17 12:25:46;;;;;;;87.22;34.35;;;;;;;6.34;96.12;101571.09;4947159;28;20041;-62
2021/12/17 12:28:15;;;;;;;54.70;23.98;;;;;;;6.33;96.38;101578.28;4950563;28;20043;-62
2021/12/17 12:30:42;;;;;;;29.77;15.23;;;;;;;6.24;96.42;101572.06;4950523;28;20145;-63
2021/12/17 12:33:08;;;;;;;24.10;14.10;;;;;;;6.55;97.43;101576.91;4951981;28;20098;-63
2021/12/17 12:35:34;;;;;;;26.15;15.55;;;;;;;6.56;96.80;101567.91;4947085;28;20563;-63
2021/12/17 12:38:17;;;;;;;25.75;14.35;;;;;;;6.58;95.57;101576.56;4949368;28;20034;-62
2021/12/17 12:40:45;;;;;;;23.95;13.55;;;;;;;6.35;95.95;101578.97;4950622;28;20043;-62
2021/12/17 12:43:31;;;;;;;27.65;12.93;;;;;;;6.33;96.80;101582.78;4948179;28;20055;-62
2021/12/17 12:45:57;;;;;;;28.80;15.18;;;;;;;6.61;98.08;101586.91;4954184;28;20046;-62
2021/12/17 12:48:29;;;;;;;28.63;14.27;;;;;;;6.47;97.05;101577.69;4952380;28;20047;-62
2021/12/17 12:51:18;;;;;;;24.20;14.60;;;;;;;6.24;96.55;101584.53;4948136;28;20062;-62
2021/12/17 12:54:08;;;;;;;99.88;26.15;;;;;;;6.36;99.57;101577.13;4953728;28;20034;-63
2021/12/17 12:56:37;;;;;;;54.15;17.13;;;;;;;6.51;99.03;101575.53;4944628;28;20627;-63
2021/12/17 12:59:03;;;;;;;35.95;15.90;;;;;;;6.49;97.54;101582.88;4942924;28;20114;-61
2021/12/17 13:01:29;;;;;;;39.00;20.50;;;;;;;6.41;97.93;101572.97;4927385;28;20522;-62
2021/12/17 13:03:54;;;;;;;36.67;16.50;;;;;;;6.39;98.31;101579.47;4960039;28;20038;-62
2021/12/17 13:06:20;;;;;;;27.65;15.07;;;;;;;6.47;99.23;101574.19;4951012;28;20234;-62
2021/12/17 13:08:55;;;;;;;58.15;16.45;;;;;;;6.59;98.21;101564.94;4947320;28;20027;-63
2021/12/17 13:11:21;;;;;;;36.28;14.45;;;;;;;6.65;98.00;101561.63;4949332;28;20145;-62
2021/12/17 13:13:53;;;;;;;28.75;14.45;;;;;;;6.69;97.62;101552.31;4953377;28;20033;-62
2021/12/17 13:16:53;;;;;;;23.02;14.35;;;;;;;6.64;96.93;101554.63;4946880;28;20137;-62
2021/12/17 13:24:26;;;;;;;30.05;13.68;;;;;;;6.48;97.48;101557.22;4945315;28;20051;-63
2021/12/17 13:27:02;;;;;;;28.25;14.90;;;;;;;6.52;97.63;101552.41;4955190;28;20042;-63
2021/12/17 13:29:32;;;;;;;29.35;14.43;;;;;;;6.29;97.53;101552.09;4948988;28;20129;-63
2021/12/17 13:32:01;;;;;;;37.38;19.33;;;;;;;6.38;98.27;101561.81;4947582;28;20150;-63
2021/12/17 13:34:34;;;;;;;30.27;18.95;;;;;;;6.37;98.02;101568.16;4953315;28;20300;-63
2021/12/17 13:37:16;;;;;;;35.90;18.73;;;;;;;6.43;98.95;101562.19;4949736;28;20047;-63
2021/12/17 13:39:48;;;;;;;52.28;26.30;;;;;;;6.38;98.38;101564.50;4951969;28;20026;-61
2021/12/17 13:42:20;;;;;;;34.50;15.30;;;;;;;6.15;98.70;101570.34;4949855;28;20047;-63
2021/12/17 13:44:47;;;;;;;37.83;20.70;;;;;;;6.06;99.51;101571.25;4952008;28;20118;-62
2021/12/17 13:47:25;;;;;;;32.65;16.38;;;;;;;6.01;100.00;101557.59;4953733;28;20497;-63
2021/12/17 13:50:02;;;;;;;38.85;20.48;;;;;;;6.08;100.00;101558.63;4953294;28;20038;-63
2021/12/17 13:52:30;;;;;;;43.45;21.65;;;;;;;6.10;100.00;101556.66;4958053;28;20501;-63
2021/12/17 13:54:56;;;;;;;48.30;24.08;;;;;;;6.11;100.00;101553.00;4956753;28;20665;-63
2021/12/17 13:57:26;;;;;;;81.65;32.08;;;;;;;6.06;100.00;101544.63;4953457;28;20067;-63
2021/12/17 13:59:52;;;;;;;48.03;23.17;;;;;;;6.07;100.00;101540.19;4957072;28;20067;-63
2021/12/17 14:02:19;;;;;;;35.17;17.10;;;;;;;6.01;100.00;101537.13;4957821;28;20357;-62
2021/12/17 14:05:08;;;;;;;29.10;16.75;;;;;;;6.10;100.00;101539.84;4953632;28;20253;-61
2021/12/17 14:07:34;;;;;;;47.75;22.95;;;;;;;6.04;100.00;101542.16;4947736;28;20051;-61
2021/12/17 14:10:06;;;;;;;28.33;16.52;;;;;;;6.15;100.00;101532.22;4951659;28;20425;-63
2021/12/17 14:12:33;;;;;;;28.05;15.32;;;;;;;6.08;100.00;101548.00;4955291;28;20061;-63